createdAt,value
2019-05-06T00:00:21.130Z,13.87
2019-05-06T00:02:54.424Z,13.40
2019-05-06T00:05:27.839Z,11.67
2019-05-06T00:08:03.749Z,11.10
2019-05-06T00:10:36.861Z,11.67
2019-05-06T00:13:10.728Z,16.20
2019-05-06T00:15:44.580Z,16.97
2019-05-06T00:18:16.539Z,11.93
2019-05-06T00:20:48.634Z,11.87
2019-05-06T00:23:31.453Z,11.73
2019-05-06T00:26:33.967Z,11.23
2019-05-06T00:29:10.347Z,13.43
2019-05-06T00:31:43.983Z,10.43
2019-05-06T00:34:16.784Z,11.53
2019-05-06T00:36:48.648Z,11.37
2019-05-06T00:39:45.360Z,14.90
2019-05-06T00:42:34.955Z,14.53
2019-05-06T00:45:09.888Z,12.50
2019-05-06T00:47:44.306Z,12.10
2019-05-06T00:50:17.988Z,11.37
2019-05-06T00:52:55.050Z,9.03
2019-05-06T00:55:28.473Z,11.97
2019-05-06T00:58:03.892Z,10.20
2019-05-06T01:00:38.947Z,9.90
2019-05-06T01:03:11.448Z,13.33
2019-05-06T01:05:44.572Z,13.87
2019-05-06T01:08:17.704Z,10.23
2019-05-06T01:10:50.947Z,15.60
2019-05-06T01:13:39.967Z,10.63
2019-05-06T01:16:15.768Z,17.27
2019-05-06T01:18:48.146Z,10.73
2019-05-06T01:21:20.906Z,12.77
2019-05-06T01:23:54.476Z,17.97
2019-05-06T01:26:27.271Z,18.17
2019-05-06T01:28:59.578Z,17.13
2019-05-06T01:31:42.269Z,16.00
2019-05-06T01:34:06.526Z,13.87
2019-05-06T01:36:39.924Z,19.47
2019-05-06T01:39:25.751Z,14.07
2019-05-06T01:42:22.102Z,16.90
2019-05-06T01:44:54.463Z,19.00
2019-05-06T01:47:26.589Z,18.37
2019-05-06T01:49:58.502Z,18.77
2019-05-06T01:52:34.352Z,18.73
2019-05-06T01:55:07.940Z,18.30
2019-05-06T01:57:40.906Z,16.53
2019-05-06T02:00:14.169Z,23.00
2019-05-06T02:02:47.907Z,14.00
2019-05-06T02:05:20.655Z,14.73
2019-05-06T02:07:54.886Z,14.77
2019-05-06T02:10:26.491Z,16.97
2019-05-06T02:12:58.110Z,11.87
2019-05-06T02:15:31.546Z,12.20
2019-05-06T02:18:05.160Z,11.73
2019-05-06T02:20:38.738Z,14.43
2019-05-06T02:23:15.225Z,11.97
2019-05-06T02:25:53.941Z,18.90
2019-05-06T02:28:26.210Z,12.90
2019-05-06T02:31:28.865Z,14.47
2019-05-06T02:34:28.089Z,18.73
2019-05-06T02:37:07.077Z,11.40
2019-05-06T02:39:39.116Z,16.33
2019-05-06T02:42:13.089Z,11.93
2019-05-06T02:44:45.743Z,11.03
2019-05-06T02:50:28.600Z,16.30
2019-05-06T02:53:02.696Z,10.03
2019-05-06T02:55:36.235Z,16.20
2019-05-06T02:58:07.981Z,17.40
2019-05-06T03:00:42.984Z,11.20
2019-05-06T03:03:14.424Z,13.33
2019-05-06T03:05:46.903Z,10.73
2019-05-06T03:08:19.341Z,13.60
2019-05-06T03:10:53.456Z,16.07
2019-05-06T03:13:24.975Z,11.60
2019-05-06T03:15:57.407Z,11.40
2019-05-06T03:18:32.655Z,15.67
2019-05-06T03:21:24.751Z,9.53
2019-05-06T03:24:03.959Z,19.43
2019-05-06T03:26:34.741Z,21.43
2019-05-06T03:29:06.240Z,16.53
2019-05-06T03:31:38.468Z,21.47
2019-05-06T03:34:35.838Z,21.10
2019-05-06T03:36:48.408Z,15.77
2019-05-06T03:39:18.515Z,14.47
2019-05-06T03:41:50.139Z,10.30
2019-05-06T03:44:23.962Z,7.77
2019-05-06T03:47:13.970Z,23.53
2019-05-06T03:49:50.092Z,20.50
2019-05-06T03:52:23.161Z,12.83
2019-05-06T03:54:56.650Z,13.67
2019-05-06T03:57:35.483Z,16.00
2019-05-06T04:00:04.992Z,17.27
2019-05-06T04:02:39.580Z,14.53
2019-05-06T04:08:57.887Z,13.60
2019-05-06T04:11:29.442Z,12.20
2019-05-06T04:14:14.023Z,16.67
2019-05-06T04:16:59.483Z,19.63
2019-05-06T04:19:37.158Z,17.77
2019-05-06T04:22:39.738Z,16.00
2019-05-06T04:25:30.372Z,13.57
2019-05-06T04:28:12.866Z,11.83
2019-05-06T04:30:44.663Z,15.07
2019-05-06T04:33:18.259Z,16.10
2019-05-06T04:35:53.795Z,18.77
2019-05-06T04:38:25.880Z,12.83
2019-05-06T04:40:57.946Z,14.23
2019-05-06T04:43:33.379Z,19.80
2019-05-06T04:46:04.536Z,17.20
2019-05-06T04:48:37.943Z,16.10
2019-05-06T04:51:13.406Z,15.03
2019-05-06T04:53:44.765Z,17.87
2019-05-06T04:56:18.388Z,17.83
2019-05-06T04:58:50.231Z,16.17
2019-05-06T05:01:23.510Z,16.43
2019-05-06T05:03:57.235Z,15.43
2019-05-06T05:06:32.872Z,13.97
2019-05-06T05:09:04.968Z,18.70
2019-05-06T05:11:46.576Z,28.83
2019-05-06T05:14:42.338Z,24.87
2019-05-06T05:17:36.559Z,23.57
2019-05-06T05:20:09.679Z,19.53
2019-05-06T05:22:42.418Z,27.07
2019-05-06T05:25:15.234Z,19.67
2019-05-06T05:27:47.685Z,17.93
2019-05-06T05:30:21.907Z,15.27
2019-05-06T05:32:55.270Z,16.47
2019-05-06T05:35:27.331Z,14.20
2019-05-06T05:38:00.118Z,18.83
2019-05-06T05:40:32.808Z,18.07
2019-05-06T05:43:23.990Z,15.93
2019-05-06T05:45:56.551Z,19.83
2019-05-06T05:48:47.685Z,16.37
2019-05-06T05:51:38.876Z,21.30
2019-05-06T05:54:12.455Z,36.43
2019-05-06T05:56:46.275Z,19.87
2019-05-06T05:59:22.967Z,18.43
2019-05-06T06:01:55.953Z,14.67
2019-05-06T06:04:27.853Z,25.90
2019-05-06T06:07:03.557Z,20.17
2019-05-06T06:09:43.284Z,15.97
2019-05-06T06:12:15.776Z,25.37
2019-05-06T06:15:15.315Z,11.27
2019-05-06T06:18:26.005Z,10.10
2019-05-06T06:21:25.647Z,10.73
2019-05-06T06:24:02.662Z,10.93
2019-05-06T06:26:35.655Z,12.33
2019-05-06T06:29:09.132Z,30.10
2019-05-06T06:31:59.888Z,24.07
2019-05-06T06:34:37.979Z,29.03
2019-05-06T06:37:22.590Z,21.13
2019-05-06T06:39:54.985Z,16.97
2019-05-06T06:42:27.809Z,14.90
2019-05-06T06:45:00.247Z,12.97
2019-05-06T06:47:33.619Z,12.77
2019-05-06T06:50:06.856Z,7.57
2019-05-06T06:52:42.198Z,19.93
2019-05-06T06:55:14.892Z,7.00
2019-05-06T06:57:56.792Z,11.23
2019-05-06T07:00:38.623Z,8.07
2019-05-06T07:03:23.328Z,13.93
2019-05-06T07:06:03.808Z,12.27
2019-05-06T07:08:38.048Z,11.13
2019-05-06T07:11:13.068Z,8.40
2019-05-06T07:13:56.331Z,11.67
2019-05-06T07:16:29.221Z,9.03
2019-05-06T07:19:03.945Z,12.33
2019-05-06T07:21:53.769Z,9.13
2019-05-06T07:24:29.269Z,10.20
2019-05-06T07:27:19.493Z,6.53
2019-05-06T07:29:52.867Z,11.33
2019-05-06T07:32:27.808Z,11.43
2019-05-06T07:35:02.227Z,15.60
2019-05-06T07:37:34.921Z,10.77
2019-05-06T07:40:09.539Z,8.17
2019-05-06T07:42:47.437Z,14.10
2019-05-06T07:45:32.856Z,11.03
2019-05-06T07:48:12.791Z,12.43
2019-05-06T07:50:45.480Z,15.30
2019-05-06T07:53:19.705Z,10.37
2019-05-06T07:55:52.469Z,12.63
2019-05-06T07:58:25.633Z,11.00
2019-05-06T08:00:58.048Z,14.73
2019-05-06T08:03:32.985Z,17.33
2019-05-06T08:06:06.792Z,13.10
2019-05-06T08:08:39.462Z,16.50
2019-05-06T08:11:13.675Z,11.70
2019-05-06T08:13:48.209Z,14.57
2019-05-06T08:16:22.584Z,15.13
2019-05-06T08:18:56.165Z,15.47
2019-05-06T08:21:32.674Z,15.47
2019-05-06T08:24:05.600Z,17.20
2019-05-06T08:26:40.160Z,20.23
2019-05-06T08:29:16.044Z,19.77
2019-05-06T08:31:52.210Z,18.53
2019-05-06T08:34:34.720Z,26.40
2019-05-06T08:37:19.249Z,17.67
2019-05-06T08:39:52.743Z,16.13
2019-05-06T08:42:25.232Z,19.47
2019-05-06T08:44:57.664Z,17.23
2019-05-06T08:47:30.385Z,13.77
2019-05-06T08:50:37.979Z,23.10
2019-05-06T08:53:29.988Z,15.73
2019-05-06T08:56:03.544Z,24.30
2019-05-06T08:58:49.166Z,21.80
2019-05-06T09:01:53.340Z,29.37
2019-05-06T09:04:25.638Z,19.00
2019-05-06T09:06:59.160Z,20.33
2019-05-06T09:09:32.658Z,18.30
2019-05-06T09:12:05.983Z,16.20
2019-05-06T09:14:38.873Z,28.47
2019-05-06T09:17:12.347Z,23.17
2019-05-06T09:19:44.572Z,18.00
2019-05-06T09:22:17.588Z,20.57
2019-05-06T09:24:52.942Z,20.87
2019-05-06T09:27:42.322Z,20.20
2019-05-06T09:30:24.672Z,21.53
2019-05-06T09:32:57.209Z,19.97
2019-05-06T09:35:32.798Z,24.13
2019-05-06T09:38:07.218Z,16.90
2019-05-06T09:40:43.098Z,19.97
2019-05-06T09:43:15.275Z,21.10
2019-05-06T09:45:48.000Z,14.70
2019-05-06T09:48:49.888Z,15.50
2019-05-06T09:51:23.978Z,17.03
2019-05-06T09:54:23.357Z,15.00
2019-05-06T09:57:02.515Z,19.20
2019-05-06T09:59:35.014Z,15.90
2019-05-06T10:02:07.540Z,21.67
2019-05-06T10:04:42.871Z,17.73
2019-05-06T10:07:17.448Z,15.07
2019-05-06T10:09:52.566Z,20.80
2019-05-06T10:12:26.039Z,18.77
2019-05-06T10:14:58.401Z,17.10
2019-05-06T10:17:31.739Z,15.93
2019-05-06T10:20:04.303Z,15.20
2019-05-06T10:22:38.792Z,18.43
2019-05-06T10:25:13.420Z,20.03
2019-05-06T10:27:52.398Z,11.00
2019-05-06T10:30:26.344Z,20.27
2019-05-06T10:33:03.550Z,20.10
2019-05-06T10:35:36.075Z,21.83
2019-05-06T10:39:02.302Z,18.60
2019-05-06T10:41:42.069Z,24.33
2019-05-06T10:44:32.984Z,23.70
2019-05-06T10:47:07.658Z,17.47
2019-05-06T10:49:42.035Z,22.93
2019-05-06T10:52:25.843Z,12.50
2019-05-06T10:54:58.660Z,17.90
2019-05-06T10:57:43.071Z,21.97
2019-05-06T11:00:17.626Z,18.77
2019-05-06T11:03:22.648Z,14.27
2019-05-06T11:05:55.063Z,22.23
2019-05-06T11:08:28.382Z,22.23
2019-05-06T11:11:14.736Z,22.87
2019-05-06T11:13:35.696Z,22.87
2019-05-06T11:16:08.851Z,20.20
2019-05-06T11:18:42.603Z,25.20
2019-05-06T11:21:16.670Z,14.43
2019-05-06T11:23:52.597Z,24.30
2019-05-06T11:26:25.785Z,19.07
2019-05-06T11:29:05.598Z,13.77
2019-05-06T11:31:57.963Z,19.40
2019-05-06T11:34:49.187Z,14.73
2019-05-06T11:37:49.255Z,18.23
2019-05-06T11:40:18.464Z,22.90
2019-05-06T11:42:52.530Z,14.27
2019-05-06T11:45:32.200Z,17.10
2019-05-06T11:48:04.781Z,16.73
2019-05-06T11:50:38.032Z,19.70
2019-05-06T11:53:12.463Z,20.50
2019-05-06T11:55:45.746Z,19.20
2019-05-06T11:58:43.820Z,18.27
2019-05-06T12:01:21.136Z,17.40
2019-05-06T12:03:53.197Z,18.00
2019-05-06T12:06:25.937Z,20.20
2019-05-06T12:09:13.051Z,18.10
2019-05-06T12:11:43.502Z,19.13
2019-05-06T12:14:16.799Z,25.87
2019-05-06T12:16:54.728Z,9.77
2019-05-06T12:19:26.723Z,17.67
2019-05-06T12:22:00.113Z,21.43
2019-05-06T12:24:32.734Z,19.13
2019-05-06T12:27:06.081Z,16.33
2019-05-06T12:29:39.145Z,21.83
2019-05-06T12:32:33.108Z,16.70
2019-05-06T12:35:05.633Z,25.37
2019-05-06T12:37:43.856Z,19.57
2019-05-06T12:40:18.533Z,24.63
2019-05-06T12:42:55.107Z,14.63
2019-05-06T12:45:37.141Z,22.77
2019-05-06T12:48:18.903Z,24.13
2019-05-06T12:50:52.587Z,16.97
2019-05-06T12:53:27.385Z,24.47
2019-05-06T12:56:03.144Z,15.83
2019-05-06T12:58:35.023Z,21.17
2019-05-06T13:01:09.492Z,20.57
2019-05-06T13:03:43.701Z,28.60
2019-05-06T13:06:18.877Z,23.10
2019-05-06T13:09:01.074Z,20.70
2019-05-06T13:11:30.383Z,21.77
2019-05-06T13:14:04.170Z,20.50
2019-05-06T13:16:38.491Z,22.07
2019-05-06T13:19:12.096Z,31.83
2019-05-06T13:21:46.197Z,30.73
2019-05-06T13:24:22.749Z,30.33
2019-05-06T13:26:58.736Z,71.13
2019-05-06T13:29:35.397Z,32.77
2019-05-06T13:32:08.566Z,20.33
2019-05-06T13:34:42.756Z,18.57
2019-05-06T13:37:16.470Z,27.00
2019-05-06T13:39:49.854Z,16.80
2019-05-06T13:42:25.604Z,20.47
2019-05-06T13:44:59.520Z,18.00
2019-05-06T13:47:59.223Z,21.10
2019-05-06T13:50:33.727Z,19.37
2019-05-06T13:53:11.449Z,25.47
2019-05-06T13:55:40.020Z,27.03
2019-05-06T13:58:13.129Z,22.53
2019-05-06T14:00:46.035Z,17.90
2019-05-06T14:03:20.796Z,33.90
2019-05-06T14:05:53.696Z,20.93
2019-05-06T14:08:27.615Z,22.63
2019-05-06T14:11:02.935Z,29.63
2019-05-06T14:13:36.710Z,23.03
2019-05-06T14:16:08.683Z,30.87
2019-05-06T14:18:42.724Z,19.07
2019-05-06T14:21:17.107Z,23.43
2019-05-06T14:23:49.969Z,23.33
2019-05-06T14:26:29.593Z,28.53
2019-05-06T14:29:23.392Z,19.83
2019-05-06T14:31:57.592Z,27.33
2019-05-06T14:34:32.488Z,30.60
2019-05-06T14:37:05.216Z,31.10
2019-05-06T14:39:52.822Z,28.93
2019-05-06T14:42:17.311Z,27.30
2019-05-06T14:44:49.331Z,28.37
2019-05-06T14:47:33.737Z,30.23
2019-05-06T14:50:08.934Z,29.43
2019-05-06T14:52:42.626Z,35.70
2019-05-06T14:55:26.524Z,31.33
2019-05-06T14:58:04.292Z,29.67
2019-05-06T15:00:36.673Z,30.43
2019-05-06T15:03:12.319Z,38.70
2019-05-06T15:05:45.173Z,29.97
2019-05-06T15:08:17.677Z,33.70
2019-05-06T15:10:53.524Z,34.17
2019-05-06T15:13:27.741Z,36.07
2019-05-06T15:16:03.218Z,43.07
2019-05-06T15:18:36.409Z,28.87
2019-05-06T15:21:30.199Z,29.23
2019-05-06T15:23:44.352Z,35.53
2019-05-06T15:26:16.289Z,33.33
2019-05-06T15:28:48.666Z,40.23
2019-05-06T15:34:04.729Z,34.47
2019-05-06T15:36:45.994Z,34.83
2019-05-06T15:39:20.773Z,39.50
2019-05-06T15:41:54.048Z,31.33
2019-05-06T15:44:26.604Z,36.83
2019-05-06T15:47:03.022Z,27.50
2019-05-06T15:49:34.880Z,25.53
2019-05-06T15:52:09.276Z,24.47
2019-05-06T15:54:43.073Z,25.60
2019-05-06T15:57:17.536Z,18.73
2019-05-06T15:59:53.050Z,15.97
2019-05-06T16:02:26.707Z,14.50
2019-05-06T16:04:59.211Z,18.50
2019-05-06T16:07:34.659Z,19.17
2019-05-06T16:10:07.688Z,26.80
2019-05-06T16:12:41.878Z,21.70
2019-05-06T16:15:16.868Z,22.07
2019-05-06T16:17:49.235Z,18.47
2019-05-06T16:20:23.014Z,25.57
2019-05-06T16:23:11.255Z,20.97
2019-05-06T16:25:46.187Z,17.20
2019-05-06T16:28:19.667Z,23.07
2019-05-06T16:30:53.650Z,20.37
2019-05-06T16:33:26.995Z,20.23
2019-05-06T16:35:59.971Z,19.67
2019-05-06T16:38:32.778Z,18.83
2019-05-06T16:41:12.692Z,11.57
2019-05-06T16:43:42.711Z,13.73
2019-05-06T16:46:17.908Z,15.27
2019-05-06T16:48:52.467Z,14.40
2019-05-06T16:51:25.618Z,14.07
2019-05-06T16:53:58.783Z,16.17
2019-05-06T16:56:59.044Z,12.23
2019-05-06T16:59:33.673Z,13.10
2019-05-06T17:02:57.970Z,17.10
2019-05-06T17:06:01.701Z,17.43
2019-05-06T17:08:53.051Z,14.90
2019-05-06T17:11:31.001Z,18.07
2019-05-06T17:14:03.367Z,17.73
2019-05-06T17:16:36.797Z,14.40
2019-05-06T17:19:09.980Z,18.80
2019-05-06T17:21:42.643Z,21.50
2019-05-06T17:24:15.528Z,18.40
2019-05-06T17:26:47.519Z,17.57
2019-05-06T17:29:26.496Z,13.33
2019-05-06T17:32:06.920Z,16.17
2019-05-06T17:34:43.053Z,18.50
2019-05-06T17:37:49.700Z,11.70
2019-05-06T17:40:24.416Z,22.53
2019-05-06T17:42:59.336Z,20.13
2019-05-06T17:45:59.310Z,9.87
2019-05-06T17:48:43.791Z,20.90
2019-05-06T17:51:27.544Z,15.87
2019-05-06T17:54:02.463Z,12.30
2019-05-06T17:56:35.123Z,18.77
2019-05-06T17:59:08.906Z,18.37
2019-05-06T18:01:47.853Z,14.00
2019-05-06T18:04:22.593Z,21.10
2019-05-06T18:06:54.424Z,24.13
2019-05-06T18:09:26.912Z,18.67
2019-05-06T18:12:03.031Z,24.07
2019-05-06T18:14:38.331Z,22.20
2019-05-06T18:17:12.500Z,17.20
2019-05-06T18:19:45.658Z,12.37
2019-05-06T18:22:19.891Z,13.13
2019-05-06T18:24:54.051Z,15.73
2019-05-06T18:27:26.710Z,17.90
2019-05-06T18:30:11.049Z,20.23
2019-05-06T18:32:37.686Z,13.13
2019-05-06T18:35:13.055Z,18.33
2019-05-06T18:37:48.459Z,17.20
2019-05-06T18:40:23.307Z,11.73
2019-05-06T18:42:57.012Z,20.93
2019-05-06T18:45:33.319Z,11.93
2019-05-06T18:48:08.368Z,17.27
2019-05-06T18:50:42.437Z,15.17
2019-05-06T18:53:16.123Z,11.83
2019-05-06T18:55:49.966Z,17.73
2019-05-06T18:58:23.418Z,15.33
2019-05-06T19:00:56.928Z,19.97
2019-05-06T19:03:32.392Z,16.67
2019-05-06T19:06:06.563Z,13.67
2019-05-06T19:08:47.832Z,15.33
2019-05-06T19:11:22.179Z,13.67
2019-05-06T19:13:54.414Z,22.40
2019-05-06T19:19:07.839Z,14.27
2019-05-06T19:21:42.368Z,14.70
2019-05-06T19:24:14.920Z,14.43
2019-05-06T19:26:48.528Z,18.23
2019-05-06T19:29:23.169Z,17.20
2019-05-06T19:31:56.408Z,19.70
2019-05-06T19:34:29.339Z,21.23
2019-05-06T19:37:03.665Z,30.80
2019-05-06T19:39:36.141Z,24.17
2019-05-06T19:42:08.512Z,18.27
2019-05-06T19:44:43.135Z,23.73
2019-05-06T19:47:16.897Z,25.20
2019-05-06T19:49:50.162Z,16.30
2019-05-06T19:52:25.125Z,18.83
2019-05-06T19:54:59.609Z,21.07
2019-05-06T19:57:34.868Z,22.03
2019-05-06T20:00:08.329Z,23.90
2019-05-06T20:02:42.968Z,19.70
2019-05-06T20:05:27.051Z,17.60
2019-05-06T20:08:12.484Z,17.77
2019-05-06T20:11:10.600Z,25.07
2019-05-06T20:13:46.179Z,16.80
2019-05-06T20:16:20.283Z,23.13
2019-05-06T20:18:54.474Z,19.13
2019-05-06T20:21:26.104Z,19.73
2019-05-06T20:23:58.663Z,21.70
2019-05-06T20:26:32.435Z,21.47
2019-05-06T20:29:05.669Z,19.60
2019-05-06T20:31:39.395Z,25.47
2019-05-06T20:34:13.588Z,24.93
2019-05-06T20:36:47.928Z,17.53
2019-05-06T20:39:22.815Z,15.17
2019-05-06T20:41:55.605Z,24.57
2019-05-06T20:44:28.624Z,23.67
2019-05-06T20:47:03.116Z,18.77
2019-05-06T20:49:38.984Z,15.60
2019-05-06T20:52:12.228Z,15.53
2019-05-06T20:54:46.962Z,19.00
2019-05-06T20:57:23.409Z,18.80
2019-05-06T20:59:58.435Z,20.37
2019-05-06T21:02:32.629Z,22.73
2019-05-06T21:05:05.547Z,17.87
2019-05-06T21:07:37.963Z,21.57
2019-05-06T21:10:12.634Z,21.33
2019-05-06T21:12:46.329Z,20.83
2019-05-06T21:15:22.743Z,27.60
2019-05-06T21:17:56.604Z,21.63
2019-05-06T21:20:30.069Z,22.73
2019-05-06T21:23:02.605Z,19.80
2019-05-06T21:25:35.389Z,25.73
2019-05-06T21:28:07.613Z,24.45
2019-05-06T21:30:40.241Z,22.43
2019-05-06T21:33:14.015Z,27.57
2019-05-06T21:35:48.777Z,21.10
2019-05-06T21:38:30.365Z,22.03
2019-05-06T21:41:02.442Z,25.77
2019-05-06T21:43:45.976Z,13.37
2019-05-06T21:46:12.986Z,23.00
2019-05-06T21:48:46.842Z,19.70
2019-05-06T21:51:22.074Z,19.97
2019-05-06T21:53:56.024Z,22.67
2019-05-06T21:56:29.239Z,34.77
2019-05-06T21:59:02.083Z,23.33
2019-05-06T22:01:35.671Z,29.03
2019-05-06T22:04:08.043Z,23.37
2019-05-06T22:06:42.826Z,23.83
2019-05-06T22:09:17.550Z,22.73
2019-05-06T22:11:52.774Z,26.70
2019-05-06T22:14:27.208Z,24.77
2019-05-06T22:17:03.851Z,26.43
2019-05-06T22:19:35.190Z,28.73
2019-05-06T22:22:14.546Z,21.00
2019-05-06T22:24:48.097Z,25.90
2019-05-06T22:27:23.563Z,26.70
2019-05-06T22:29:56.452Z,29.33
2019-05-06T22:32:33.160Z,22.03
2019-05-06T22:35:05.933Z,36.03
2019-05-06T22:37:39.332Z,27.60
2019-05-06T22:40:12.607Z,22.17
2019-05-06T22:42:45.075Z,20.23
2019-05-06T22:45:17.551Z,28.60
2019-05-06T22:47:50.322Z,29.13
2019-05-06T22:50:23.448Z,23.60
2019-05-06T22:52:57.507Z,22.93
2019-05-06T22:55:32.470Z,26.27
2019-05-06T22:58:17.032Z,24.97
2019-05-06T23:00:53.826Z,29.63
2019-05-06T23:03:27.323Z,27.33
2019-05-06T23:05:59.827Z,24.33
2019-05-06T23:08:34.007Z,20.00
2019-05-06T23:11:06.561Z,26.37
2019-05-06T23:13:39.611Z,26.50
2019-05-06T23:16:13.182Z,27.63
2019-05-06T23:18:45.662Z,26.20
2019-05-06T23:21:19.022Z,27.30
2019-05-06T23:23:54.772Z,19.83
2019-05-06T23:26:27.511Z,15.43
2019-05-06T23:29:02.483Z,15.20
2019-05-06T23:31:35.904Z,24.80
2019-05-06T23:34:08.216Z,19.67
2019-05-06T23:37:22.981Z,21.37
2019-05-06T23:40:38.966Z,15.77
2019-05-06T23:43:45.809Z,17.47
2019-05-06T23:46:53.401Z,16.67
2019-05-06T23:50:00.153Z,11.07
2019-05-06T23:53:07.777Z,16.17
2019-05-06T23:56:14.538Z,17.93
2019-05-06T23:58:47.789Z,16.77
